sensor_id;sensor_type;location;lat;lon;timestamp;P1;durP1;ratioP1;P2;durP2;ratioP2
74363;SDS011;62797;49.740;10.154;2022-09-25T00:01:34;20.00;;;13.53;;
74363;SDS011;62797;49.740;10.154;2022-09-25T00:03:59;20.37;;;13.20;;
74363;SDS011;62797;49.740;10.154;2022-09-25T00:06:26;18.80;;;12.90;;
74363;SDS011;62797;49.740;10.154;2022-09-25T00:08:52;19.70;;;12.63;;
74363;SDS011;62797;49.740;10.154;2022-09-25T00:11:26;34.17;;;17.10;;
74363;SDS011;62797;49.740;10.154;2022-09-25T00:13:57;24.40;;;14.45;;
74363;SDS011;62797;49.740;10.154;2022-09-25T00:16:27;19.63;;;12.20;;
74363;SDS011;62797;49.740;10.154;2022-09-25T00:18:55;22.80;;;13.35;;
74363;SDS011;62797;49.740;10.154;2022-09-25T00:21:39;20.33;;;14.50;;
74363;SDS011;62797;49.740;10.154;2022-09-25T00:24:06;30.07;;;15.60;;
74363;SDS011;62797;49.740;10.154;2022-09-25T00:26:34;21.80;;;14.73;;
74363;SDS011;62797;49.740;10.154;2022-09-25T00:29:02;20.95;;;13.70;;
74363;SDS011;62797;49.740;10.154;2022-09-25T00:31:28;20.27;;;13.27;;
74363;SDS011;62797;49.740;10.154;2022-09-25T00:33:58;24.70;;;16.10;;
74363;SDS011;62797;49.740;10.154;2022-09-25T00:36:26;20.52;;;14.65;;
74363;SDS011;62797;49.740;10.154;2022-09-25T00:41:19;21.92;;;15.30;;
74363;SDS011;62797;49.740;10.154;2022-09-25T00:43:48;22.00;;;13.98;;
74363;SDS011;62797;49.740;10.154;2022-09-25T00:46:19;22.45;;;14.50;;
74363;SDS011;62797;49.740;10.154;2022-09-25T00:48:50;18.67;;;13.55;;
74363;SDS011;62797;49.740;10.154;2022-09-25T00:51:18;30.77;;;16.40;;
74363;SDS011;62797;49.740;10.154;2022-09-25T00:53:52;20.98;;;14.43;;
74363;SDS011;62797;49.740;10.154;2022-09-25T00:56:17;27.20;;;16.47;;
74363;SDS011;62797;49.740;10.154;2022-09-25T00:58:43;21.37;;;14.13;;
74363;SDS011;62797;49.740;10.154;2022-09-25T01:01:09;20.77;;;14.40;;
74363;SDS011;62797;49.740;10.154;2022-09-25T01:03:35;26.40;;;14.68;;
74363;SDS011;62797;49.740;10.154;2022-09-25T01:06:01;22.17;;;14.77;;
74363;SDS011;62797;49.740;10.154;2022-09-25T01:08:27;21.98;;;14.32;;
74363;SDS011;62797;49.740;10.154;2022-09-25T01:10:54;25.00;;;13.55;;
74363;SDS011;62797;49.740;10.154;2022-09-25T01:13:20;17.60;;;13.43;;
74363;SDS011;62797;49.740;10.154;2022-09-25T01:18:52;20.55;;;13.82;;
74363;SDS011;62797;49.740;10.154;2022-09-25T01:21:42;22.88;;;15.35;;
74363;SDS011;62797;49.740;10.154;2022-09-25T01:27:08;21.80;;;14.05;;
74363;SDS011;62797;49.740;10.154;2022-09-25T01:30:01;27.67;;;15.88;;
74363;SDS011;62797;49.740;10.154;2022-09-25T01:35:32;36.55;;;15.73;;
74363;SDS011;62797;49.740;10.154;2022-09-25T01:38:25;21.67;;;14.38;;
74363;SDS011;62797;49.740;10.154;2022-09-25T01:41:01;29.50;;;16.63;;
74363;SDS011;62797;49.740;10.154;2022-09-25T01:43:35;28.48;;;16.02;;
74363;SDS011;62797;49.740;10.154;2022-09-25T01:46:03;30.70;;;17.30;;
74363;SDS011;62797;49.740;10.154;2022-09-25T01:48:39;26.77;;;15.43;;
74363;SDS011;62797;49.740;10.154;2022-09-25T01:51:09;34.15;;;16.95;;
74363;SDS011;62797;49.740;10.154;2022-09-25T01:53:46;27.40;;;16.88;;
74363;SDS011;62797;49.740;10.154;2022-09-25T01:56:16;30.05;;;17.77;;
74363;SDS011;62797;49.740;10.154;2022-09-25T01:59:16;31.08;;;16.65;;
74363;SDS011;62797;49.740;10.154;2022-09-25T02:01:47;30.90;;;17.67;;
74363;SDS011;62797;49.740;10.154;2022-09-25T02:04:18;28.45;;;17.48;;
74363;SDS011;62797;49.740;10.154;2022-09-25T02:06:50;31.95;;;18.73;;
74363;SDS011;62797;49.740;10.154;2022-09-25T02:12:17;29.15;;;17.98;;
74363;SDS011;62797;49.740;10.154;2022-09-25T02:15:24;25.45;;;16.77;;
74363;SDS011;62797;49.740;10.154;2022-09-25T02:17:48;25.08;;;15.35;;
74363;SDS011;62797;49.740;10.154;2022-09-25T02:20:36;23.48;;;13.63;;
74363;SDS011;62797;49.740;10.154;2022-09-25T02:23:26;31.38;;;17.73;;
74363;SDS011;62797;49.740;10.154;2022-09-25T02:26:04;28.87;;;16.97;;
74363;SDS011;62797;49.740;10.154;2022-09-25T02:28:33;23.25;;;15.45;;
74363;SDS011;62797;49.740;10.154;2022-09-25T02:30:59;22.30;;;15.07;;
74363;SDS011;62797;49.740;10.154;2022-09-25T02:33:29;28.40;;;18.55;;
74363;SDS011;62797;49.740;10.154;2022-09-25T02:35:55;21.52;;;16.08;;
74363;SDS011;62797;49.740;10.154;2022-09-25T02:38:22;24.20;;;17.58;;
74363;SDS011;62797;49.740;10.154;2022-09-25T02:41:03;23.53;;;15.80;;
74363;SDS011;62797;49.740;10.154;2022-09-25T02:49:17;26.88;;;17.08;;
74363;SDS011;62797;49.740;10.154;2022-09-25T02:51:55;27.73;;;17.77;;
74363;SDS011;62797;49.740;10.154;2022-09-25T02:54:56;31.83;;;17.58;;
74363;SDS011;62797;49.740;10.154;2022-09-25T02:57:29;27.92;;;18.02;;
74363;SDS011;62797;49.740;10.154;2022-09-25T03:00:03;26.25;;;17.27;;
74363;SDS011;62797;49.740;10.154;2022-09-25T03:02:31;31.77;;;19.13;;
74363;SDS011;62797;49.740;10.154;2022-09-25T03:04:57;24.92;;;15.82;;
74363;SDS011;62797;49.740;10.154;2022-09-25T03:07:24;24.98;;;16.65;;
74363;SDS011;62797;49.740;10.154;2022-09-25T03:09:50;24.33;;;16.88;;
74363;SDS011;62797;49.740;10.154;2022-09-25T03:12:18;26.33;;;17.85;;
74363;SDS011;62797;49.740;10.154;2022-09-25T03:14:43;28.30;;;16.20;;
74363;SDS011;62797;49.740;10.154;2022-09-25T03:17:09;24.20;;;15.40;;
74363;SDS011;62797;49.740;10.154;2022-09-25T03:19:35;29.30;;;16.80;;
74363;SDS011;62797;49.740;10.154;2022-09-25T03:24:27;23.40;;;16.35;;
74363;SDS011;62797;49.740;10.154;2022-09-25T03:26:53;26.50;;;16.53;;
74363;SDS011;62797;49.740;10.154;2022-09-25T03:29:19;25.30;;;16.30;;
74363;SDS011;62797;49.740;10.154;2022-09-25T03:31:45;22.55;;;16.95;;
74363;SDS011;62797;49.740;10.154;2022-09-25T03:34:12;20.67;;;16.40;;
74363;SDS011;62797;49.740;10.154;2022-09-25T03:36:38;23.17;;;16.17;;
74363;SDS011;62797;49.740;10.154;2022-09-25T03:39:05;30.50;;;17.98;;
74363;SDS011;62797;49.740;10.154;2022-09-25T03:41:32;25.45;;;17.83;;
74363;SDS011;62797;49.740;10.154;2022-09-25T03:43:59;19.95;;;15.25;;
74363;SDS011;62797;49.740;10.154;2022-09-25T03:46:29;23.80;;;15.85;;
74363;SDS011;62797;49.740;10.154;2022-09-25T03:48:58;25.00;;;18.45;;
74363;SDS011;62797;49.740;10.154;2022-09-25T03:51:25;27.65;;;17.40;;
74363;SDS011;62797;49.740;10.154;2022-09-25T03:53:52;23.55;;;16.75;;
74363;SDS011;62797;49.740;10.154;2022-09-25T03:56:19;21.17;;;15.25;;
74363;SDS011;62797;49.740;10.154;2022-09-25T03:58:47;24.52;;;16.30;;
74363;SDS011;62797;49.740;10.154;2022-09-25T04:01:13;23.13;;;16.20;;
74363;SDS011;62797;49.740;10.154;2022-09-25T04:03:39;24.83;;;18.10;;
74363;SDS011;62797;49.740;10.154;2022-09-25T04:06:08;32.75;;;18.75;;
74363;SDS011;62797;49.740;10.154;2022-09-25T04:08:34;24.30;;;16.50;;
74363;SDS011;62797;49.740;10.154;2022-09-25T04:11:01;24.48;;;16.95;;
74363;SDS011;62797;49.740;10.154;2022-09-25T04:15:55;27.10;;;16.55;;
74363;SDS011;62797;49.740;10.154;2022-09-25T04:18:22;26.08;;;15.82;;
74363;SDS011;62797;49.740;10.154;2022-09-25T04:20:48;24.20;;;16.88;;
74363;SDS011;62797;49.740;10.154;2022-09-25T04:23:14;24.40;;;16.10;;
74363;SDS011;62797;49.740;10.154;2022-09-25T04:25:39;27.07;;;17.37;;
74363;SDS011;62797;49.740;10.154;2022-09-25T04:28:05;21.93;;;15.77;;
74363;SDS011;62797;49.740;10.154;2022-09-25T04:30:31;28.23;;;18.30;;
74363;SDS011;62797;49.740;10.154;2022-09-25T04:35:42;23.70;;;15.80;;
74363;SDS011;62797;49.740;10.154;2022-09-25T04:38:07;23.70;;;16.75;;
74363;SDS011;62797;49.740;10.154;2022-09-25T04:40:34;22.38;;;15.95;;
74363;SDS011;62797;49.740;10.154;2022-09-25T04:43:00;29.95;;;18.10;;
74363;SDS011;62797;49.740;10.154;2022-09-25T04:45:28;28.38;;;18.20;;
74363;SDS011;62797;49.740;10.154;2022-09-25T04:47:55;30.27;;;18.15;;
74363;SDS011;62797;49.740;10.154;2022-09-25T04:50:22;25.15;;;17.48;;
74363;SDS011;62797;49.740;10.154;2022-09-25T04:52:49;20.73;;;15.45;;
74363;SDS011;62797;49.740;10.154;2022-09-25T04:55:19;21.50;;;15.57;;
74363;SDS011;62797;49.740;10.154;2022-09-25T04:57:49;21.80;;;15.98;;
74363;SDS011;62797;49.740;10.154;2022-09-25T05:00:16;26.58;;;17.85;;
74363;SDS011;62797;49.740;10.154;2022-09-25T05:02:43;31.10;;;20.30;;
74363;SDS011;62797;49.740;10.154;2022-09-25T05:05:09;29.90;;;18.85;;
74363;SDS011;62797;49.740;10.154;2022-09-25T05:07:35;32.87;;;20.20;;
74363;SDS011;62797;49.740;10.154;2022-09-25T05:10:00;24.80;;;16.47;;
74363;SDS011;62797;49.740;10.154;2022-09-25T05:12:25;25.87;;;17.10;;
74363;SDS011;62797;49.740;10.154;2022-09-25T05:14:51;28.47;;;19.37;;
74363;SDS011;62797;49.740;10.154;2022-09-25T05:17:16;31.03;;;20.90;;
74363;SDS011;62797;49.740;10.154;2022-09-25T05:19:42;39.87;;;23.63;;
74363;SDS011;62797;49.740;10.154;2022-09-25T05:22:07;34.90;;;22.20;;
74363;SDS011;62797;49.740;10.154;2022-09-25T05:24:33;31.60;;;22.33;;
74363;SDS011;62797;49.740;10.154;2022-09-25T05:26:59;31.25;;;22.52;;
74363;SDS011;62797;49.740;10.154;2022-09-25T05:29:25;35.03;;;20.40;;
74363;SDS011;62797;49.740;10.154;2022-09-25T05:31:50;26.37;;;19.83;;
74363;SDS011;62797;49.740;10.154;2022-09-25T05:34:16;27.70;;;17.97;;
74363;SDS011;62797;49.740;10.154;2022-09-25T05:36:41;32.93;;;20.13;;
74363;SDS011;62797;49.740;10.154;2022-09-25T05:39:10;41.50;;;25.10;;
74363;SDS011;62797;49.740;10.154;2022-09-25T05:41:36;42.85;;;24.60;;
74363;SDS011;62797;49.740;10.154;2022-09-25T05:44:02;38.93;;;23.87;;
74363;SDS011;62797;49.740;10.154;2022-09-25T05:46:33;36.35;;;24.10;;
74363;SDS011;62797;49.740;10.154;2022-09-25T05:49:02;36.90;;;24.67;;
74363;SDS011;62797;49.740;10.154;2022-09-25T05:51:28;36.63;;;24.48;;
74363;SDS011;62797;49.740;10.154;2022-09-25T05:53:54;46.08;;;27.20;;
74363;SDS011;62797;49.740;10.154;2022-09-25T05:56:20;35.97;;;24.40;;
74363;SDS011;62797;49.740;10.154;2022-09-25T05:58:48;38.08;;;24.77;;
74363;SDS011;62797;49.740;10.154;2022-09-25T06:01:15;41.63;;;25.15;;
74363;SDS011;62797;49.740;10.154;2022-09-25T06:03:40;39.90;;;25.75;;
74363;SDS011;62797;49.740;10.154;2022-09-25T06:06:06;44.50;;;26.60;;
74363;SDS011;62797;49.740;10.154;2022-09-25T06:08:31;46.27;;;27.43;;
74363;SDS011;62797;49.740;10.154;2022-09-25T06:10:59;42.88;;;28.45;;
74363;SDS011;62797;49.740;10.154;2022-09-25T06:13:26;43.67;;;27.88;;
74363;SDS011;62797;49.740;10.154;2022-09-25T06:15:52;48.70;;;29.40;;
74363;SDS011;62797;49.740;10.154;2022-09-25T06:18:19;60.57;;;31.93;;
74363;SDS011;62797;49.740;10.154;2022-09-25T06:20:45;84.45;;;39.00;;
74363;SDS011;62797;49.740;10.154;2022-09-25T06:23:11;51.70;;;29.98;;
74363;SDS011;62797;49.740;10.154;2022-09-25T06:25:37;58.73;;;32.00;;
74363;SDS011;62797;49.740;10.154;2022-09-25T06:28:03;72.03;;;35.03;;
74363;SDS011;62797;49.740;10.154;2022-09-25T06:30:31;51.58;;;31.67;;
74363;SDS011;62797;49.740;10.154;2022-09-25T06:32:59;65.78;;;33.05;;
74363;SDS011;62797;49.740;10.154;2022-09-25T06:35:26;57.05;;;32.22;;
74363;SDS011;62797;49.740;10.154;2022-09-25T06:37:55;47.83;;;29.00;;
74363;SDS011;62797;49.740;10.154;2022-09-25T06:40:22;53.72;;;30.02;;
74363;SDS011;62797;49.740;10.154;2022-09-25T06:43:00;57.70;;;34.13;;
74363;SDS011;62797;49.740;10.154;2022-09-25T06:45:28;67.05;;;36.25;;
74363;SDS011;62797;49.740;10.154;2022-09-25T06:48:04;39.15;;;25.45;;
74363;SDS011;62797;49.740;10.154;2022-09-25T06:50:39;39.85;;;24.40;;
74363;SDS011;62797;49.740;10.154;2022-09-25T06:53:11;46.42;;;23.25;;
74363;SDS011;62797;49.740;10.154;2022-09-25T06:55:37;39.90;;;21.85;;
74363;SDS011;62797;49.740;10.154;2022-09-25T06:58:04;52.88;;;25.38;;
74363;SDS011;62797;49.740;10.154;2022-09-25T07:00:31;41.15;;;20.25;;
74363;SDS011;62797;49.740;10.154;2022-09-25T07:02:57;41.45;;;22.65;;
74363;SDS011;62797;49.740;10.154;2022-09-25T07:05:43;61.03;;;31.23;;
74363;SDS011;62797;49.740;10.154;2022-09-25T07:08:10;41.88;;;26.20;;
74363;SDS011;62797;49.740;10.154;2022-09-25T07:10:38;41.92;;;25.75;;
74363;SDS011;62797;49.740;10.154;2022-09-25T07:13:03;61.00;;;28.55;;
74363;SDS011;62797;49.740;10.154;2022-09-25T07:15:29;39.50;;;24.43;;
74363;SDS011;62797;49.740;10.154;2022-09-25T07:17:55;41.83;;;25.83;;
74363;SDS011;62797;49.740;10.154;2022-09-25T07:20:20;40.53;;;24.43;;
74363;SDS011;62797;49.740;10.154;2022-09-25T07:22:46;55.55;;;29.90;;
74363;SDS011;62797;49.740;10.154;2022-09-25T07:25:12;37.93;;;24.97;;
74363;SDS011;62797;49.740;10.154;2022-09-25T07:27:38;64.00;;;29.98;;
74363;SDS011;62797;49.740;10.154;2022-09-25T07:30:04;45.70;;;26.60;;
74363;SDS011;62797;49.740;10.154;2022-09-25T07:32:30;46.90;;;27.20;;
74363;SDS011;62797;49.740;10.154;2022-09-25T07:34:56;43.47;;;27.83;;
74363;SDS011;62797;49.740;10.154;2022-09-25T07:37:22;35.03;;;23.05;;
74363;SDS011;62797;49.740;10.154;2022-09-25T07:39:48;41.95;;;27.15;;
74363;SDS011;62797;49.740;10.154;2022-09-25T07:42:14;42.23;;;25.83;;
74363;SDS011;62797;49.740;10.154;2022-09-25T07:44:41;42.40;;;26.77;;
74363;SDS011;62797;49.740;10.154;2022-09-25T07:47:06;40.50;;;26.20;;
74363;SDS011;62797;49.740;10.154;2022-09-25T07:49:33;62.92;;;29.48;;
74363;SDS011;62797;49.740;10.154;2022-09-25T07:51:59;36.88;;;22.95;;
74363;SDS011;62797;49.740;10.154;2022-09-25T07:56:51;42.10;;;28.45;;
74363;SDS011;62797;49.740;10.154;2022-09-25T07:59:16;40.47;;;26.13;;
74363;SDS011;62797;49.740;10.154;2022-09-25T08:01:42;39.43;;;24.73;;
74363;SDS011;62797;49.740;10.154;2022-09-25T08:04:07;41.43;;;27.47;;
74363;SDS011;62797;49.740;10.154;2022-09-25T08:06:33;35.13;;;25.90;;
74363;SDS011;62797;49.740;10.154;2022-09-25T08:08:59;34.33;;;23.52;;
74363;SDS011;62797;49.740;10.154;2022-09-25T08:11:25;35.10;;;23.93;;
74363;SDS011;62797;49.740;10.154;2022-09-25T08:13:52;33.47;;;22.50;;
74363;SDS011;62797;49.740;10.154;2022-09-25T08:16:17;19.53;;;13.57;;
74363;SDS011;62797;49.740;10.154;2022-09-25T08:18:46;33.42;;;21.33;;
74363;SDS011;62797;49.740;10.154;2022-09-25T08:21:16;24.27;;;18.98;;
74363;SDS011;62797;49.740;10.154;2022-09-25T08:23:47;32.42;;;22.30;;
74363;SDS011;62797;49.740;10.154;2022-09-25T08:26:14;29.75;;;19.33;;
74363;SDS011;62797;49.740;10.154;2022-09-25T08:28:43;24.38;;;16.73;;
74363;SDS011;62797;49.740;10.154;2022-09-25T08:31:09;31.30;;;21.93;;
74363;SDS011;62797;49.740;10.154;2022-09-25T08:33:35;28.10;;;17.85;;
74363;SDS011;62797;49.740;10.154;2022-09-25T08:36:02;26.48;;;19.25;;
74363;SDS011;62797;49.740;10.154;2022-09-25T08:38:29;32.25;;;21.70;;
74363;SDS011;62797;49.740;10.154;2022-09-25T08:43:28;23.58;;;18.00;;
74363;SDS011;62797;49.740;10.154;2022-09-25T08:45:57;24.88;;;16.10;;
74363;SDS011;62797;49.740;10.154;2022-09-25T08:48:53;30.50;;;20.48;;
74363;SDS011;62797;49.740;10.154;2022-09-25T08:51:48;22.48;;;16.95;;
74363;SDS011;62797;49.740;10.154;2022-09-25T08:54:21;26.60;;;19.88;;
74363;SDS011;62797;49.740;10.154;2022-09-25T08:56:52;41.83;;;24.08;;
74363;SDS011;62797;49.740;10.154;2022-09-25T08:59:28;42.83;;;25.42;;
74363;SDS011;62797;49.740;10.154;2022-09-25T09:01:55;38.22;;;24.55;;
74363;SDS011;62797;49.740;10.154;2022-09-25T09:04:37;34.15;;;23.65;;
74363;SDS011;62797;49.740;10.154;2022-09-25T09:07:10;36.05;;;25.33;;
74363;SDS011;62797;49.740;10.154;2022-09-25T09:09:44;40.90;;;26.38;;
74363;SDS011;62797;49.740;10.154;2022-09-25T09:12:16;36.53;;;24.83;;
74363;SDS011;62797;49.740;10.154;2022-09-25T09:14:47;30.30;;;20.38;;
74363;SDS011;62797;49.740;10.154;2022-09-25T09:17:17;31.30;;;21.60;;
74363;SDS011;62797;49.740;10.154;2022-09-25T09:19:52;30.17;;;20.45;;
74363;SDS011;62797;49.740;10.154;2022-09-25T09:22:25;32.90;;;22.63;;
74363;SDS011;62797;49.740;10.154;2022-09-25T09:25:00;25.23;;;17.58;;
74363;SDS011;62797;49.740;10.154;2022-09-25T09:30:40;32.25;;;19.70;;
74363;SDS011;62797;49.740;10.154;2022-09-25T09:47:06;25.05;;;17.45;;
74363;SDS011;62797;49.740;10.154;2022-09-25T09:49:56;29.10;;;17.05;;
74363;SDS011;62797;49.740;10.154;2022-09-25T09:52:28;30.48;;;21.60;;
74363;SDS011;62797;49.740;10.154;2022-09-25T09:55:01;22.88;;;16.95;;
74363;SDS011;62797;49.740;10.154;2022-09-25T09:58:01;28.70;;;19.00;;
74363;SDS011;62797;49.740;10.154;2022-09-25T10:00:30;25.02;;;17.98;;
74363;SDS011;62797;49.740;10.154;2022-09-25T10:03:10;28.67;;;19.60;;
74363;SDS011;62797;49.740;10.154;2022-09-25T10:05:49;30.50;;;21.02;;
74363;SDS011;62797;49.740;10.154;2022-09-25T10:08:18;24.70;;;17.08;;
74363;SDS011;62797;49.740;10.154;2022-09-25T10:10:45;19.67;;;14.47;;
74363;SDS011;62797;49.740;10.154;2022-09-25T10:13:29;23.88;;;16.02;;
74363;SDS011;62797;49.740;10.154;2022-09-25T10:16:14;22.80;;;16.63;;
74363;SDS011;62797;49.740;10.154;2022-09-25T10:21:48;25.75;;;17.20;;
74363;SDS011;62797;49.740;10.154;2022-09-25T10:35:40;16.63;;;12.90;;
74363;SDS011;62797;49.740;10.154;2022-09-25T10:41:12;14.70;;;11.90;;
74363;SDS011;62797;49.740;10.154;2022-09-25T10:43:58;14.93;;;12.45;;
74363;SDS011;62797;49.740;10.154;2022-09-25T10:49:25;17.60;;;12.98;;
74363;SDS011;62797;49.740;10.154;2022-09-25T10:54:37;14.10;;;11.27;;
74363;SDS011;62797;49.740;10.154;2022-09-25T11:00:03;15.25;;;10.10;;
74363;SDS011;62797;49.740;10.154;2022-09-25T11:02:32;15.52;;;11.20;;
74363;SDS011;62797;49.740;10.154;2022-09-25T11:05:05;12.18;;;9.88;;
74363;SDS011;62797;49.740;10.154;2022-09-25T11:07:39;14.68;;;11.02;;
74363;SDS011;62797;49.740;10.154;2022-09-25T11:10:18;14.80;;;10.15;;
74363;SDS011;62797;49.740;10.154;2022-09-25T11:12:49;13.63;;;11.75;;
74363;SDS011;62797;49.740;10.154;2022-09-25T11:15:17;14.27;;;11.45;;
74363;SDS011;62797;49.740;10.154;2022-09-25T11:17:44;13.57;;;10.95;;
74363;SDS011;62797;49.740;10.154;2022-09-25T11:30:56;14.18;;;10.30;;
74363;SDS011;62797;49.740;10.154;2022-09-25T11:33:31;15.38;;;12.07;;
74363;SDS011;62797;49.740;10.154;2022-09-25T11:36:02;15.43;;;11.85;;
74363;SDS011;62797;49.740;10.154;2022-09-25T11:38:35;16.52;;;11.05;;
74363;SDS011;62797;49.740;10.154;2022-09-25T11:41:55;16.92;;;12.77;;
74363;SDS011;62797;49.740;10.154;2022-09-25T11:44:53;15.98;;;12.20;;
74363;SDS011;62797;49.740;10.154;2022-09-25T11:50:17;12.23;;;10.00;;
74363;SDS011;62797;49.740;10.154;2022-09-25T11:55:48;13.85;;;10.90;;
74363;SDS011;62797;49.740;10.154;2022-09-25T12:12:18;12.52;;;10.98;;
74363;SDS011;62797;49.740;10.154;2022-09-25T12:15:00;12.70;;;10.40;;
74363;SDS011;62797;49.740;10.154;2022-09-25T12:30:50;10.35;;;8.70;;
74363;SDS011;62797;49.740;10.154;2022-09-25T12:33:47;14.70;;;10.50;;
74363;SDS011;62797;49.740;10.154;2022-09-25T12:36:50;10.85;;;8.20;;
74363;SDS011;62797;49.740;10.154;2022-09-25T12:45:23;13.40;;;10.57;;
74363;SDS011;62797;49.740;10.154;2022-09-25T12:48:06;13.02;;;10.77;;
74363;SDS011;62797;49.740;10.154;2022-09-25T12:50:54;13.95;;;11.20;;
74363;SDS011;62797;49.740;10.154;2022-09-25T12:53:40;11.18;;;9.32;;
74363;SDS011;62797;49.740;10.154;2022-09-25T12:56:43;18.45;;;10.70;;
74363;SDS011;62797;49.740;10.154;2022-09-25T12:59:24;12.77;;;9.43;;
74363;SDS011;62797;49.740;10.154;2022-09-25T13:02:33;11.60;;;9.77;;
74363;SDS011;62797;49.740;10.154;2022-09-25T13:07:52;13.30;;;9.25;;
74363;SDS011;62797;49.740;10.154;2022-09-25T13:12:51;12.30;;;10.60;;
74363;SDS011;62797;49.740;10.154;2022-09-25T13:15:23;14.68;;;9.82;;
74363;SDS011;62797;49.740;10.154;2022-09-25T13:17:54;15.40;;;9.50;;
74363;SDS011;62797;49.740;10.154;2022-09-25T13:23:14;12.13;;;9.48;;
74363;SDS011;62797;49.740;10.154;2022-09-25T13:25:50;14.82;;;10.55;;
74363;SDS011;62797;49.740;10.154;2022-09-25T13:28:24;15.13;;;9.85;;
74363;SDS011;62797;49.740;10.154;2022-09-25T13:30:58;14.45;;;9.57;;
74363;SDS011;62797;49.740;10.154;2022-09-25T13:33:49;13.88;;;9.48;;
74363;SDS011;62797;49.740;10.154;2022-09-25T13:38:48;16.45;;;9.93;;
74363;SDS011;62797;49.740;10.154;2022-09-25T13:41:45;11.07;;;9.80;;
74363;SDS011;62797;49.740;10.154;2022-09-25T13:49:51;13.45;;;9.10;;
74363;SDS011;62797;49.740;10.154;2022-09-25T13:52:28;12.55;;;8.00;;
74363;SDS011;62797;49.740;10.154;2022-09-25T14:00:23;11.15;;;8.02;;
74363;SDS011;62797;49.740;10.154;2022-09-25T14:02:50;9.30;;;8.05;;
74363;SDS011;62797;49.740;10.154;2022-09-25T14:05:26;10.02;;;7.40;;
74363;SDS011;62797;49.740;10.154;2022-09-25T14:08:05;10.80;;;8.48;;
74363;SDS011;62797;49.740;10.154;2022-09-25T14:10:36;7.72;;;6.75;;
74363;SDS011;62797;49.740;10.154;2022-09-25T14:13:10;8.30;;;6.93;;
74363;SDS011;62797;49.740;10.154;2022-09-25T14:15:38;6.50;;;5.63;;
74363;SDS011;62797;49.740;10.154;2022-09-25T14:18:05;7.78;;;6.00;;
74363;SDS011;62797;49.740;10.154;2022-09-25T14:20:45;9.73;;;7.15;;
74363;SDS011;62797;49.740;10.154;2022-09-25T14:23:27;9.10;;;6.68;;
74363;SDS011;62797;49.740;10.154;2022-09-25T14:26:04;5.05;;;4.50;;
74363;SDS011;62797;49.740;10.154;2022-09-25T14:28:32;5.03;;;4.15;;
74363;SDS011;62797;49.740;10.154;2022-09-25T14:48:17;8.98;;;7.03;;
74363;SDS011;62797;49.740;10.154;2022-09-25T14:50:51;7.78;;;6.38;;
74363;SDS011;62797;49.740;10.154;2022-09-25T14:53:23;8.65;;;6.72;;
74363;SDS011;62797;49.740;10.154;2022-09-25T14:55:55;7.55;;;6.68;;
74363;SDS011;62797;49.740;10.154;2022-09-25T14:58:22;9.18;;;6.47;;
74363;SDS011;62797;49.740;10.154;2022-09-25T15:00:54;7.65;;;5.93;;
74363;SDS011;62797;49.740;10.154;2022-09-25T15:03:26;7.20;;;6.40;;
74363;SDS011;62797;49.740;10.154;2022-09-25T15:05:57;8.48;;;7.13;;
74363;SDS011;62797;49.740;10.154;2022-09-25T15:08:46;6.70;;;4.95;;
74363;SDS011;62797;49.740;10.154;2022-09-25T15:11:13;7.45;;;5.55;;
74363;SDS011;62797;49.740;10.154;2022-09-25T15:13:40;6.47;;;5.13;;
74363;SDS011;62797;49.740;10.154;2022-09-25T15:16:10;9.90;;;5.70;;
74363;SDS011;62797;49.740;10.154;2022-09-25T15:18:58;9.40;;;5.55;;
74363;SDS011;62797;49.740;10.154;2022-09-25T15:23:56;4.40;;;3.25;;
74363;SDS011;62797;49.740;10.154;2022-09-25T15:26:26;4.85;;;3.92;;
74363;SDS011;62797;49.740;10.154;2022-09-25T15:28:54;5.88;;;3.60;;
74363;SDS011;62797;49.740;10.154;2022-09-25T15:31:20;3.58;;;3.17;;
74363;SDS011;62797;49.740;10.154;2022-09-25T15:33:59;4.18;;;3.30;;
74363;SDS011;62797;49.740;10.154;2022-09-25T15:36:35;5.53;;;4.60;;
74363;SDS011;62797;49.740;10.154;2022-09-25T15:39:02;3.83;;;3.43;;
74363;SDS011;62797;49.740;10.154;2022-09-25T15:41:37;3.67;;;2.80;;
74363;SDS011;62797;49.740;10.154;2022-09-25T15:44:24;3.00;;;2.00;;
74363;SDS011;62797;49.740;10.154;2022-09-25T15:46:50;2.25;;;1.83;;
74363;SDS011;62797;49.740;10.154;2022-09-25T15:49:23;2.65;;;2.08;;
74363;SDS011;62797;49.740;10.154;2022-09-25T15:51:54;2.30;;;2.10;;
74363;SDS011;62797;49.740;10.154;2022-09-25T15:54:37;2.25;;;1.77;;
74363;SDS011;62797;49.740;10.154;2022-09-25T15:57:09;3.55;;;2.08;;
74363;SDS011;62797;49.740;10.154;2022-09-25T15:59:46;1.70;;;1.60;;
74363;SDS011;62797;49.740;10.154;2022-09-25T16:02:47;4.50;;;1.92;;
74363;SDS011;62797;49.740;10.154;2022-09-25T16:05:37;3.45;;;2.22;;
74363;SDS011;62797;49.740;10.154;2022-09-25T16:13:33;3.85;;;2.60;;
74363;SDS011;62797;49.740;10.154;2022-09-25T16:16:03;7.65;;;3.47;;
74363;SDS011;62797;49.740;10.154;2022-09-25T16:18:36;3.63;;;2.55;;
74363;SDS011;62797;49.740;10.154;2022-09-25T16:21:20;3.17;;;2.25;;
74363;SDS011;62797;49.740;10.154;2022-09-25T16:23:56;3.53;;;2.72;;
74363;SDS011;62797;49.740;10.154;2022-09-25T16:26:25;4.15;;;2.85;;
74363;SDS011;62797;49.740;10.154;2022-09-25T16:31:37;3.42;;;2.33;;
74363;SDS011;62797;49.740;10.154;2022-09-25T16:34:04;3.03;;;2.10;;
74363;SDS011;62797;49.740;10.154;2022-09-25T16:36:40;4.70;;;2.47;;
74363;SDS011;62797;49.740;10.154;2022-09-25T16:41:33;4.10;;;2.72;;
74363;SDS011;62797;49.740;10.154;2022-09-25T16:44:18;5.03;;;3.08;;
74363;SDS011;62797;49.740;10.154;2022-09-25T16:47:14;6.70;;;3.17;;
74363;SDS011;62797;49.740;10.154;2022-09-25T16:49:42;6.30;;;5.30;;
74363;SDS011;62797;49.740;10.154;2022-09-25T16:52:10;5.90;;;4.35;;
74363;SDS011;62797;49.740;10.154;2022-09-25T16:54:48;5.55;;;3.90;;
74363;SDS011;62797;49.740;10.154;2022-09-25T16:57:19;5.15;;;3.58;;
74363;SDS011;62797;49.740;10.154;2022-09-25T16:59:46;6.13;;;4.85;;
74363;SDS011;62797;49.740;10.154;2022-09-25T17:02:20;6.30;;;4.70;;
74363;SDS011;62797;49.740;10.154;2022-09-25T17:04:59;5.83;;;4.40;;
74363;SDS011;62797;49.740;10.154;2022-09-25T17:07:30;7.25;;;5.10;;
74363;SDS011;62797;49.740;10.154;2022-09-25T17:09:55;6.53;;;4.80;;
74363;SDS011;62797;49.740;10.154;2022-09-25T17:12:22;5.45;;;4.45;;
74363;SDS011;62797;49.740;10.154;2022-09-25T17:14:50;8.48;;;5.72;;
74363;SDS011;62797;49.740;10.154;2022-09-25T17:17:17;7.80;;;5.83;;
74363;SDS011;62797;49.740;10.154;2022-09-25T17:19:44;7.93;;;5.03;;
74363;SDS011;62797;49.740;10.154;2022-09-25T17:22:10;7.80;;;5.67;;
74363;SDS011;62797;49.740;10.154;2022-09-25T17:24:36;6.27;;;5.63;;
74363;SDS011;62797;49.740;10.154;2022-09-25T17:27:04;8.23;;;5.90;;
74363;SDS011;62797;49.740;10.154;2022-09-25T17:29:37;7.25;;;6.22;;
74363;SDS011;62797;49.740;10.154;2022-09-25T17:32:03;20.73;;;7.78;;
74363;SDS011;62797;49.740;10.154;2022-09-25T17:34:29;9.77;;;7.00;;
74363;SDS011;62797;49.740;10.154;2022-09-25T17:36:55;10.82;;;7.63;;